Oakhill, Kansas
Current Conditions -  °F | °C
As of 10:55 PM on Sunday 19 Oct 2014 (Local Time) from KCNK Reporting Station
Clear Clear  
Wind Chill: 57°   Ceiling: Unl
Heat Index: 57°   Visibility: 10mi
Dew Point: 52°   Wind: 10mph
Humidity: 83%   Direction: 200°SSW
Pressure: 30.01"   Gusts: NA
Location:  39.3117°N, 97.253°W
Report Text: KCNK 200355Z AUTO 20009KT 10SM CLR 14/11 A3001 RMK AO2 SLP157 T01390111
Loading
Personal Weather Stations






























Interactive Weather Map
Tropical Storm Tracking
New forecast layout! Learn more

10-Day Weather Forecast

Advertisements
Track Severe Weather on mobile